CDT,Max TemperatureF,Mean TemperatureF,Min TemperatureF,Max Dew PointF,MeanDew PointF,Min DewpointF,Max Humidity, Mean Humidity, Min Humidity, Max Sea Level PressureIn, Mean Sea Level PressureIn, Min Sea Level PressureIn, Max VisibilityMiles, Mean VisibilityMiles, Min VisibilityMiles, Max Wind SpeedMPH, Mean Wind SpeedMPH, Max Gust SpeedMPH,PrecipitationIn, CloudCover, Events, WindDirDegrees
2014-4-1,79,70,61,66,63,59,100,79,58,30.10,30.06,30.02,10,10,6,16,7,22,0.00,4,,172
2014-4-2,80,73,65,69,66,64,100,84,67,30.05,29.99,29.94,10,10,8,18,9,25,0.00,6,,161
2014-4-3,79,75,71,70,68,66,93,80,67,29.96,29.92,29.87,10,10,8,23,12,32,0.00,7,,169
2014-4-4,78,69,59,70,63,55,93,72,50,30.02,29.95,29.83,10,8,1,26,8,34,0.33,6,Rain-Thunderstorm,37
2014-4-5,67,63,59,58,50,45,93,71,48,30.06,30.00,29.94,10,10,3,17,9,23,0.10,8,,48
2014-4-6,74,66,57,72,63,55,100,95,90,29.96,29.79,29.62,10,3,2,22,8,30,0.52,8,Rain-Thunderstorm,89
2014-4-7,71,63,55,69,57,49,100,77,53,29.95,29.78,29.66,10,10,3,16,9,20,0.00,5,Rain-Thunderstorm,317
2014-4-8,72,60,48,53,48,41,93,64,35,30.15,29.97,29.88,10,10,6,31,10,38,0.11,4,Rain-Thunderstorm,311
2014-4-9,72,59,46,54,42,35,86,57,27,30.29,30.21,30.16,10,10,10,15,6,20,0.00,0,,301
2014-4-10,72,61,49,55,50,46,93,69,44,30.23,30.19,30.14,10,9,0,20,7,25,0.00,0,,175
2014-4-11,77,67,56,60,57,55,100,75,50,30.19,30.12,30.08,10,10,10,15,5,22,0.00,3,,183
2014-4-12,80,69,58,67,62,57,100,77,54,30.14,30.07,30.00,10,6,0,17,7,23,0.00,3,Fog,167
2014-4-13,79,74,69,69,67,64,93,78,62,30.00,29.93,29.80,10,9,6,22,12,31,0.03,5,Rain,165
2014-4-14,81,65,49,72,63,48,93,81,69,30.01,29.83,29.73,10,8,1,31,14,39,0.80,8,Rain-Thunderstorm,235
2014-4-15,60,52,43,47,35,27,93,62,31,30.21,30.14,30.04,10,10,8,32,16,38,0.00,4,,4
2014-4-16,65,52,39,52,42,35,96,72,48,30.25,30.17,30.09,10,10,10,12,4,15,0.00,0,,118
2014-4-17,64,56,47,59,54,47,100,84,67,30.19,30.14,30.11,10,10,8,9,4,13,0.00,5,,52
2014-4-18,78,69,60,61,59,57,97,76,54,30.14,30.11,30.07,10,8,4,18,7,22,0.00,5,,17
2014-4-19,80,68,55,58,55,50,100,69,37,30.21,30.14,30.10,10,10,5,13,3,17,0.00,0,,37
2014-4-20,83,69,55,61,56,53,93,66,39,30.20,30.13,30.07,10,10,9,12,3,16,0.00,0,,180
2014-4-21,78,69,59,65,62,58,100,78,56,30.13,30.09,30.00,10,7,0,15,5,19,0.00,3,Fog,177
2014-4-22,82,72,62,67,64,59,100,76,51,30.00,29.97,29.90,10,9,4,15,6,20,0.00,5,,260
2014-4-23,84,71,58,64,60,56,100,70,40,30.01,29.94,29.88,10,9,1,14,3,17,0.00,1,,185
2014-4-24,80,70,60,68,65,60,100,81,62,29.97,29.91,29.87,10,6,0,17,7,24,0.00,5,Fog,196
2014-4-25,87,77,67,70,67,59,100,72,43,30.01,29.96,29.91,10,9,5,10,5,16,0.01,4,Rain,270
2014-4-26,84,76,68,71,69,66,100,79,58,29.96,29.92,29.87,10,7,1,17,6,23,0.00,5,,163
2014-4-27,83,79,74,72,71,70,93,79,65,29.85,29.75,29.68,10,10,8,24,14,36,0.01,5,Rain-Thunderstorm,170
2014-4-28,84,79,74,73,72,71,94,84,74,29.76,29.69,29.61,10,8,5,22,13,29,T,7,Rain,196
2014-4-29,88,79,69,73,69,48,100,72,44,29.84,29.69,29.65,10,6,3,18,9,23,T,6,Rain,228
2014-4-30,73,66,58,49,44,40,60,47,33,30.10,29.99,29.86,10,10,10,22,11,28,T,0,Rain,342